sensor_id;sensor_type;location;lat;lon;timestamp;P1;durP1;ratioP1;P2;durP2;ratioP2
39896;SDS011;25567;48.276;14.242;2023-06-24T00:02:26;2.42;;;1.42;;
39896;SDS011;25567;48.276;14.242;2023-06-24T00:04:52;2.35;;;1.25;;
39896;SDS011;25567;48.276;14.242;2023-06-24T00:07:19;3.10;;;1.27;;
39896;SDS011;25567;48.276;14.242;2023-06-24T00:09:49;2.42;;;1.27;;
39896;SDS011;25567;48.276;14.242;2023-06-24T00:12:15;1.73;;;1.13;;
39896;SDS011;25567;48.276;14.242;2023-06-24T00:14:46;4.32;;;1.55;;
39896;SDS011;25567;48.276;14.242;2023-06-24T00:17:13;2.15;;;1.23;;
39896;SDS011;25567;48.276;14.242;2023-06-24T00:19:39;2.80;;;1.25;;
39896;SDS011;25567;48.276;14.242;2023-06-24T00:22:06;3.92;;;1.10;;
39896;SDS011;25567;48.276;14.242;2023-06-24T00:24:33;4.35;;;1.23;;
39896;SDS011;25567;48.276;14.242;2023-06-24T00:26:59;2.42;;;1.30;;
39896;SDS011;25567;48.276;14.242;2023-06-24T00:29:26;3.78;;;1.50;;
39896;SDS011;25567;48.276;14.242;2023-06-24T00:31:52;3.85;;;1.20;;
39896;SDS011;25567;48.276;14.242;2023-06-24T00:34:19;3.38;;;1.40;;
39896;SDS011;25567;48.276;14.242;2023-06-24T00:36:46;2.85;;;1.30;;
39896;SDS011;25567;48.276;14.242;2023-06-24T00:39:13;2.03;;;1.30;;
39896;SDS011;25567;48.276;14.242;2023-06-24T00:41:40;2.80;;;1.20;;
39896;SDS011;25567;48.276;14.242;2023-06-24T00:44:06;3.90;;;1.48;;
39896;SDS011;25567;48.276;14.242;2023-06-24T00:46:33;4.25;;;1.50;;
39896;SDS011;25567;48.276;14.242;2023-06-24T00:49:00;3.15;;;1.83;;
39896;SDS011;25567;48.276;14.242;2023-06-24T00:51:29;3.67;;;1.65;;
39896;SDS011;25567;48.276;14.242;2023-06-24T00:53:57;3.10;;;1.65;;
39896;SDS011;25567;48.276;14.242;2023-06-24T00:56:31;2.75;;;1.63;;
39896;SDS011;25567;48.276;14.242;2023-06-24T00:58:59;3.15;;;2.00;;
39896;SDS011;25567;48.276;14.242;2023-06-24T01:01:34;4.05;;;2.10;;
39896;SDS011;25567;48.276;14.242;2023-06-24T01:04:02;5.03;;;2.13;;
39896;SDS011;25567;48.276;14.242;2023-06-24T01:06:29;4.07;;;2.00;;
39896;SDS011;25567;48.276;14.242;2023-06-24T01:08:57;3.30;;;2.10;;
39896;SDS011;25567;48.276;14.242;2023-06-24T01:11:23;3.55;;;2.10;;
39896;SDS011;25567;48.276;14.242;2023-06-24T01:13:50;3.13;;;1.80;;
39896;SDS011;25567;48.276;14.242;2023-06-24T01:16:24;5.07;;;2.10;;
39896;SDS011;25567;48.276;14.242;2023-06-24T01:18:54;2.83;;;1.80;;
39896;SDS011;25567;48.276;14.242;2023-06-24T01:21:51;4.90;;;2.03;;
39896;SDS011;25567;48.276;14.242;2023-06-24T01:31:52;2.65;;;1.88;;
39896;SDS011;25567;48.276;14.242;2023-06-24T01:37:20;3.60;;;1.88;;
39896;SDS011;25567;48.276;14.242;2023-06-24T01:39:48;3.60;;;2.13;;
39896;SDS011;25567;48.276;14.242;2023-06-24T01:42:17;2.80;;;1.70;;
39896;SDS011;25567;48.276;14.242;2023-06-24T01:44:45;4.93;;;1.75;;
39896;SDS011;25567;48.276;14.242;2023-06-24T01:47:13;4.00;;;1.80;;
39896;SDS011;25567;48.276;14.242;2023-06-24T01:49:42;4.63;;;1.77;;
39896;SDS011;25567;48.276;14.242;2023-06-24T01:52:09;3.75;;;2.40;;
39896;SDS011;25567;48.276;14.242;2023-06-24T01:54:36;3.95;;;2.00;;
39896;SDS011;25567;48.276;14.242;2023-06-24T01:57:05;6.47;;;2.30;;
39896;SDS011;25567;48.276;14.242;2023-06-24T01:59:33;3.20;;;1.98;;
39896;SDS011;25567;48.276;14.242;2023-06-24T02:02:00;3.33;;;2.10;;
39896;SDS011;25567;48.276;14.242;2023-06-24T02:04:28;3.70;;;2.10;;
39896;SDS011;25567;48.276;14.242;2023-06-24T02:07:01;3.63;;;2.03;;
39896;SDS011;25567;48.276;14.242;2023-06-24T02:09:32;4.35;;;2.53;;
39896;SDS011;25567;48.276;14.242;2023-06-24T02:12:00;4.97;;;2.65;;
39896;SDS011;25567;48.276;14.242;2023-06-24T02:14:28;3.97;;;2.30;;
39896;SDS011;25567;48.276;14.242;2023-06-24T02:16:58;4.07;;;2.25;;
39896;SDS011;25567;48.276;14.242;2023-06-24T02:19:27;3.22;;;2.25;;
39896;SDS011;25567;48.276;14.242;2023-06-24T02:21:56;4.80;;;2.45;;
39896;SDS011;25567;48.276;14.242;2023-06-24T02:24:23;4.80;;;2.88;;
39896;SDS011;25567;48.276;14.242;2023-06-24T02:26:50;5.38;;;2.53;;
39896;SDS011;25567;48.276;14.242;2023-06-24T02:29:19;5.63;;;3.08;;
39896;SDS011;25567;48.276;14.242;2023-06-24T02:31:46;5.97;;;3.10;;
39896;SDS011;25567;48.276;14.242;2023-06-24T02:34:13;5.07;;;3.10;;
39896;SDS011;25567;48.276;14.242;2023-06-24T02:36:40;4.85;;;3.25;;
39896;SDS011;25567;48.276;14.242;2023-06-24T02:39:06;4.85;;;3.30;;
39896;SDS011;25567;48.276;14.242;2023-06-24T02:41:35;5.22;;;3.40;;
39896;SDS011;25567;48.276;14.242;2023-06-24T02:44:02;4.80;;;2.95;;
39896;SDS011;25567;48.276;14.242;2023-06-24T02:46:29;8.77;;;3.55;;
39896;SDS011;25567;48.276;14.242;2023-06-24T02:48:58;5.75;;;3.67;;
39896;SDS011;25567;48.276;14.242;2023-06-24T02:51:25;6.95;;;3.75;;
39896;SDS011;25567;48.276;14.242;2023-06-24T02:53:52;6.03;;;3.78;;
39896;SDS011;25567;48.276;14.242;2023-06-24T02:56:19;7.82;;;4.07;;
39896;SDS011;25567;48.276;14.242;2023-06-24T02:58:47;7.40;;;3.53;;
39896;SDS011;25567;48.276;14.242;2023-06-24T03:01:14;8.23;;;4.50;;
39896;SDS011;25567;48.276;14.242;2023-06-24T03:03:42;6.60;;;4.20;;
39896;SDS011;25567;48.276;14.242;2023-06-24T03:06:08;9.35;;;4.07;;
39896;SDS011;25567;48.276;14.242;2023-06-24T03:08:39;8.35;;;4.82;;
39896;SDS011;25567;48.276;14.242;2023-06-24T03:11:05;5.85;;;4.00;;
39896;SDS011;25567;48.276;14.242;2023-06-24T03:13:32;8.60;;;4.10;;
39896;SDS011;25567;48.276;14.242;2023-06-24T03:15:58;6.88;;;4.20;;
39896;SDS011;25567;48.276;14.242;2023-06-24T03:18:25;8.60;;;4.50;;
39896;SDS011;25567;48.276;14.242;2023-06-24T03:20:52;8.05;;;4.45;;
39896;SDS011;25567;48.276;14.242;2023-06-24T03:23:19;7.18;;;4.30;;
39896;SDS011;25567;48.276;14.242;2023-06-24T03:25:45;7.00;;;4.40;;
39896;SDS011;25567;48.276;14.242;2023-06-24T03:28:12;7.38;;;4.30;;
39896;SDS011;25567;48.276;14.242;2023-06-24T03:30:39;9.57;;;4.20;;
39896;SDS011;25567;48.276;14.242;2023-06-24T03:33:06;7.05;;;4.25;;
39896;SDS011;25567;48.276;14.242;2023-06-24T03:35:32;12.45;;;4.68;;
39896;SDS011;25567;48.276;14.242;2023-06-24T03:38:00;6.95;;;4.15;;
39896;SDS011;25567;48.276;14.242;2023-06-24T03:40:27;5.97;;;4.05;;
39896;SDS011;25567;48.276;14.242;2023-06-24T03:42:53;7.28;;;4.28;;
39896;SDS011;25567;48.276;14.242;2023-06-24T03:45:20;7.45;;;4.38;;
39896;SDS011;25567;48.276;14.242;2023-06-24T03:47:46;8.68;;;4.72;;
39896;SDS011;25567;48.276;14.242;2023-06-24T03:50:13;8.23;;;4.60;;
39896;SDS011;25567;48.276;14.242;2023-06-24T03:52:40;7.55;;;4.50;;
39896;SDS011;25567;48.276;14.242;2023-06-24T03:55:06;8.00;;;4.60;;
39896;SDS011;25567;48.276;14.242;2023-06-24T03:57:33;6.88;;;4.50;;
39896;SDS011;25567;48.276;14.242;2023-06-24T04:00:00;10.30;;;4.47;;
39896;SDS011;25567;48.276;14.242;2023-06-24T04:02:26;8.63;;;5.00;;
39896;SDS011;25567;48.276;14.242;2023-06-24T04:04:55;10.35;;;5.25;;
39896;SDS011;25567;48.276;14.242;2023-06-24T04:07:22;9.27;;;5.07;;
39896;SDS011;25567;48.276;14.242;2023-06-24T04:09:54;9.00;;;4.80;;
39896;SDS011;25567;48.276;14.242;2023-06-24T04:12:22;12.07;;;5.00;;
39896;SDS011;25567;48.276;14.242;2023-06-24T04:14:49;10.25;;;5.65;;
39896;SDS011;25567;48.276;14.242;2023-06-24T04:17:16;9.90;;;5.38;;
39896;SDS011;25567;48.276;14.242;2023-06-24T04:19:42;8.85;;;5.03;;
39896;SDS011;25567;48.276;14.242;2023-06-24T04:22:09;8.23;;;5.20;;
39896;SDS011;25567;48.276;14.242;2023-06-24T04:24:35;11.82;;;5.82;;
39896;SDS011;25567;48.276;14.242;2023-06-24T04:27:02;9.75;;;5.57;;
39896;SDS011;25567;48.276;14.242;2023-06-24T04:29:29;10.82;;;5.82;;
39896;SDS011;25567;48.276;14.242;2023-06-24T04:31:55;12.52;;;5.63;;
39896;SDS011;25567;48.276;14.242;2023-06-24T04:34:22;6.78;;;4.53;;
39896;SDS011;25567;48.276;14.242;2023-06-24T04:36:48;9.80;;;6.45;;
39896;SDS011;25567;48.276;14.242;2023-06-24T04:39:15;9.98;;;5.25;;
39896;SDS011;25567;48.276;14.242;2023-06-24T04:41:42;9.32;;;5.55;;
39896;SDS011;25567;48.276;14.242;2023-06-24T04:44:08;9.93;;;5.30;;
39896;SDS011;25567;48.276;14.242;2023-06-24T04:46:35;10.30;;;5.97;;
39896;SDS011;25567;48.276;14.242;2023-06-24T04:49:02;11.00;;;5.72;;
39896;SDS011;25567;48.276;14.242;2023-06-24T04:51:28;11.77;;;5.57;;
39896;SDS011;25567;48.276;14.242;2023-06-24T04:53:55;9.73;;;5.50;;
39896;SDS011;25567;48.276;14.242;2023-06-24T04:56:22;10.43;;;5.65;;
39896;SDS011;25567;48.276;14.242;2023-06-24T04:58:48;10.45;;;5.68;;
39896;SDS011;25567;48.276;14.242;2023-06-24T05:01:15;15.75;;;6.10;;
39896;SDS011;25567;48.276;14.242;2023-06-24T05:03:42;11.02;;;6.22;;
39896;SDS011;25567;48.276;14.242;2023-06-24T05:06:09;11.88;;;6.53;;
39896;SDS011;25567;48.276;14.242;2023-06-24T05:08:35;9.90;;;6.18;;
39896;SDS011;25567;48.276;14.242;2023-06-24T05:11:02;9.07;;;6.15;;
39896;SDS011;25567;48.276;14.242;2023-06-24T05:13:29;12.68;;;6.88;;
39896;SDS011;25567;48.276;14.242;2023-06-24T05:15:57;12.55;;;7.53;;
39896;SDS011;25567;48.276;14.242;2023-06-24T05:18:23;12.68;;;7.05;;
39896;SDS011;25567;48.276;14.242;2023-06-24T05:20:56;15.40;;;7.18;;
39896;SDS011;25567;48.276;14.242;2023-06-24T05:23:23;12.48;;;6.38;;
39896;SDS011;25567;48.276;14.242;2023-06-24T05:25:50;10.65;;;6.40;;
39896;SDS011;25567;48.276;14.242;2023-06-24T05:28:16;14.82;;;6.88;;
39896;SDS011;25567;48.276;14.242;2023-06-24T05:30:44;10.95;;;6.53;;
39896;SDS011;25567;48.276;14.242;2023-06-24T05:33:12;15.38;;;6.85;;
39896;SDS011;25567;48.276;14.242;2023-06-24T05:35:40;14.23;;;6.50;;
39896;SDS011;25567;48.276;14.242;2023-06-24T05:38:09;12.23;;;5.70;;
39896;SDS011;25567;48.276;14.242;2023-06-24T05:40:35;13.80;;;7.00;;
39896;SDS011;25567;48.276;14.242;2023-06-24T05:43:02;12.32;;;7.00;;
39896;SDS011;25567;48.276;14.242;2023-06-24T05:45:29;12.80;;;6.93;;
39896;SDS011;25567;48.276;14.242;2023-06-24T05:47:56;11.35;;;6.43;;
39896;SDS011;25567;48.276;14.242;2023-06-24T05:50:23;12.85;;;6.50;;
39896;SDS011;25567;48.276;14.242;2023-06-24T05:52:49;9.30;;;6.18;;
39896;SDS011;25567;48.276;14.242;2023-06-24T05:55:16;10.95;;;6.10;;
39896;SDS011;25567;48.276;14.242;2023-06-24T05:57:43;11.35;;;6.38;;
39896;SDS011;25567;48.276;14.242;2023-06-24T06:00:10;11.70;;;6.70;;
39896;SDS011;25567;48.276;14.242;2023-06-24T06:02:37;9.73;;;6.68;;
39896;SDS011;25567;48.276;14.242;2023-06-24T06:05:04;12.32;;;7.10;;
39896;SDS011;25567;48.276;14.242;2023-06-24T06:07:30;17.95;;;7.13;;
39896;SDS011;25567;48.276;14.242;2023-06-24T06:09:57;14.85;;;7.32;;
39896;SDS011;25567;48.276;14.242;2023-06-24T06:12:24;12.82;;;6.93;;
39896;SDS011;25567;48.276;14.242;2023-06-24T06:14:51;10.73;;;7.15;;
39896;SDS011;25567;48.276;14.242;2023-06-24T06:17:17;14.25;;;7.00;;
39896;SDS011;25567;48.276;14.242;2023-06-24T06:19:45;12.07;;;7.53;;
39896;SDS011;25567;48.276;14.242;2023-06-24T06:22:16;13.65;;;7.70;;
39896;SDS011;25567;48.276;14.242;2023-06-24T06:24:42;11.57;;;7.28;;
39896;SDS011;25567;48.276;14.242;2023-06-24T06:27:09;13.55;;;7.18;;
39896;SDS011;25567;48.276;14.242;2023-06-24T06:29:37;14.45;;;7.65;;
39896;SDS011;25567;48.276;14.242;2023-06-24T06:32:03;13.02;;;7.63;;
39896;SDS011;25567;48.276;14.242;2023-06-24T06:34:34;11.38;;;6.82;;
39896;SDS011;25567;48.276;14.242;2023-06-24T06:37:01;14.93;;;7.03;;
39896;SDS011;25567;48.276;14.242;2023-06-24T06:39:28;12.50;;;7.55;;
39896;SDS011;25567;48.276;14.242;2023-06-24T06:41:55;12.30;;;6.55;;
39896;SDS011;25567;48.276;14.242;2023-06-24T06:44:21;14.02;;;7.80;;
39896;SDS011;25567;48.276;14.242;2023-06-24T06:46:51;17.13;;;7.65;;
39896;SDS011;25567;48.276;14.242;2023-06-24T06:49:18;14.32;;;7.10;;
39896;SDS011;25567;48.276;14.242;2023-06-24T06:51:44;15.38;;;7.40;;
39896;SDS011;25567;48.276;14.242;2023-06-24T06:54:13;14.07;;;7.65;;
39896;SDS011;25567;48.276;14.242;2023-06-24T06:56:40;18.27;;;7.53;;
39896;SDS011;25567;48.276;14.242;2023-06-24T06:59:07;14.73;;;7.85;;
39896;SDS011;25567;48.276;14.242;2023-06-24T07:01:34;13.95;;;7.85;;
39896;SDS011;25567;48.276;14.242;2023-06-24T07:04:01;14.35;;;8.05;;
39896;SDS011;25567;48.276;14.242;2023-06-24T07:06:27;13.75;;;7.75;;
39896;SDS011;25567;48.276;14.242;2023-06-24T07:08:54;16.65;;;8.52;;
39896;SDS011;25567;48.276;14.242;2023-06-24T07:11:21;15.38;;;7.75;;
39896;SDS011;25567;48.276;14.242;2023-06-24T07:13:48;15.80;;;8.32;;
39896;SDS011;25567;48.276;14.242;2023-06-24T07:16:17;13.38;;;7.47;;
39896;SDS011;25567;48.276;14.242;2023-06-24T07:18:44;12.35;;;7.68;;
39896;SDS011;25567;48.276;14.242;2023-06-24T07:21:11;12.63;;;7.63;;
39896;SDS011;25567;48.276;14.242;2023-06-24T07:23:37;13.02;;;7.63;;
39896;SDS011;25567;48.276;14.242;2023-06-24T07:26:04;19.10;;;8.07;;
39896;SDS011;25567;48.276;14.242;2023-06-24T07:28:32;13.68;;;7.90;;
39896;SDS011;25567;48.276;14.242;2023-06-24T07:30:59;17.98;;;8.02;;
39896;SDS011;25567;48.276;14.242;2023-06-24T07:33:26;13.43;;;8.27;;
39896;SDS011;25567;48.276;14.242;2023-06-24T07:35:53;16.73;;;8.75;;
39896;SDS011;25567;48.276;14.242;2023-06-24T07:38:20;14.02;;;7.57;;
39896;SDS011;25567;48.276;14.242;2023-06-24T07:40:46;16.83;;;7.93;;
39896;SDS011;25567;48.276;14.242;2023-06-24T07:43:13;12.38;;;7.78;;
39896;SDS011;25567;48.276;14.242;2023-06-24T07:45:40;14.38;;;7.78;;
39896;SDS011;25567;48.276;14.242;2023-06-24T07:48:07;16.58;;;7.78;;
39896;SDS011;25567;48.276;14.242;2023-06-24T07:50:34;14.18;;;7.57;;
39896;SDS011;25567;48.276;14.242;2023-06-24T07:53:02;12.63;;;7.30;;
39896;SDS011;25567;48.276;14.242;2023-06-24T07:55:31;14.43;;;8.18;;
39896;SDS011;25567;48.276;14.242;2023-06-24T07:57:58;15.95;;;8.15;;
39896;SDS011;25567;48.276;14.242;2023-06-24T08:00:28;16.38;;;8.00;;
39896;SDS011;25567;48.276;14.242;2023-06-24T08:02:56;16.75;;;7.75;;
39896;SDS011;25567;48.276;14.242;2023-06-24T08:05:27;18.58;;;8.30;;
39896;SDS011;25567;48.276;14.242;2023-06-24T08:07:54;16.27;;;8.57;;
39896;SDS011;25567;48.276;14.242;2023-06-24T08:10:21;12.10;;;8.00;;
39896;SDS011;25567;48.276;14.242;2023-06-24T08:12:48;15.68;;;7.78;;
39896;SDS011;25567;48.276;14.242;2023-06-24T08:15:16;14.77;;;8.00;;
39896;SDS011;25567;48.276;14.242;2023-06-24T08:17:43;15.30;;;8.02;;
39896;SDS011;25567;48.276;14.242;2023-06-24T08:20:10;15.20;;;8.07;;
39896;SDS011;25567;48.276;14.242;2023-06-24T08:22:37;15.02;;;8.48;;
39896;SDS011;25567;48.276;14.242;2023-06-24T08:25:04;12.65;;;7.75;;
39896;SDS011;25567;48.276;14.242;2023-06-24T08:27:31;17.15;;;8.40;;
39896;SDS011;25567;48.276;14.242;2023-06-24T08:29:58;15.98;;;7.97;;
39896;SDS011;25567;48.276;14.242;2023-06-24T08:32:25;16.20;;;7.97;;
39896;SDS011;25567;48.276;14.242;2023-06-24T08:34:52;16.38;;;8.55;;
39896;SDS011;25567;48.276;14.242;2023-06-24T08:37:18;13.18;;;8.40;;
39896;SDS011;25567;48.276;14.242;2023-06-24T08:39:45;18.70;;;8.05;;
39896;SDS011;25567;48.276;14.242;2023-06-24T08:42:12;14.23;;;7.65;;
39896;SDS011;25567;48.276;14.242;2023-06-24T08:44:39;15.02;;;8.27;;
39896;SDS011;25567;48.276;14.242;2023-06-24T08:47:05;15.07;;;8.05;;
39896;SDS011;25567;48.276;14.242;2023-06-24T08:49:32;15.38;;;8.32;;
39896;SDS011;25567;48.276;14.242;2023-06-24T08:52:04;13.25;;;7.95;;
39896;SDS011;25567;48.276;14.242;2023-06-24T08:54:32;15.23;;;7.68;;
39896;SDS011;25567;48.276;14.242;2023-06-24T08:57:00;13.43;;;7.80;;
39896;SDS011;25567;48.276;14.242;2023-06-24T08:59:28;14.02;;;7.40;;
39896;SDS011;25567;48.276;14.242;2023-06-24T09:01:55;13.63;;;7.57;;
39896;SDS011;25567;48.276;14.242;2023-06-24T09:04:21;14.23;;;7.43;;
39896;SDS011;25567;48.276;14.242;2023-06-24T09:06:48;12.27;;;8.20;;
39896;SDS011;25567;48.276;14.242;2023-06-24T09:09:18;13.32;;;7.78;;
39896;SDS011;25567;48.276;14.242;2023-06-24T09:11:52;14.48;;;7.22;;
39896;SDS011;25567;48.276;14.242;2023-06-24T09:14:20;14.00;;;7.60;;
39896;SDS011;25567;48.276;14.242;2023-06-24T09:16:53;13.90;;;7.90;;
39896;SDS011;25567;48.276;14.242;2023-06-24T09:19:21;16.58;;;7.97;;
39896;SDS011;25567;48.276;14.242;2023-06-24T09:21:48;17.80;;;7.45;;
39896;SDS011;25567;48.276;14.242;2023-06-24T09:24:15;19.60;;;8.10;;
39896;SDS011;25567;48.276;14.242;2023-06-24T09:26:42;13.23;;;7.72;;
39896;SDS011;25567;48.276;14.242;2023-06-24T09:29:09;14.13;;;7.70;;
39896;SDS011;25567;48.276;14.242;2023-06-24T09:31:45;16.60;;;7.88;;
39896;SDS011;25567;48.276;14.242;2023-06-24T09:34:12;13.38;;;8.13;;
39896;SDS011;25567;48.276;14.242;2023-06-24T09:36:50;14.27;;;7.60;;
39896;SDS011;25567;48.276;14.242;2023-06-24T09:39:17;13.73;;;7.75;;
39896;SDS011;25567;48.276;14.242;2023-06-24T09:41:58;13.68;;;8.02;;
39896;SDS011;25567;48.276;14.242;2023-06-24T09:44:26;19.50;;;8.30;;
39896;SDS011;25567;48.276;14.242;2023-06-24T09:46:53;15.98;;;8.20;;
39896;SDS011;25567;48.276;14.242;2023-06-24T09:49:20;16.30;;;8.50;;
39896;SDS011;25567;48.276;14.242;2023-06-24T09:51:47;17.75;;;8.43;;
39896;SDS011;25567;48.276;14.242;2023-06-24T09:54:14;15.63;;;8.45;;
39896;SDS011;25567;48.276;14.242;2023-06-24T09:56:50;16.52;;;8.07;;
39896;SDS011;25567;48.276;14.242;2023-06-24T09:59:17;14.25;;;8.00;;
39896;SDS011;25567;48.276;14.242;2023-06-24T10:01:46;19.17;;;8.85;;
39896;SDS011;25567;48.276;14.242;2023-06-24T10:04:17;14.70;;;8.57;;
39896;SDS011;25567;48.276;14.242;2023-06-24T10:06:44;15.73;;;8.32;;
39896;SDS011;25567;48.276;14.242;2023-06-24T10:09:11;15.73;;;9.00;;
39896;SDS011;25567;48.276;14.242;2023-06-24T10:11:46;15.43;;;8.45;;
39896;SDS011;25567;48.276;14.242;2023-06-24T10:14:14;13.55;;;8.10;;
39896;SDS011;25567;48.276;14.242;2023-06-24T10:16:41;17.23;;;9.50;;
39896;SDS011;25567;48.276;14.242;2023-06-24T10:19:08;16.52;;;8.75;;
39896;SDS011;25567;48.276;14.242;2023-06-24T10:21:44;22.40;;;9.07;;
39896;SDS011;25567;48.276;14.242;2023-06-24T10:24:12;11.88;;;7.85;;
39896;SDS011;25567;48.276;14.242;2023-06-24T10:26:39;16.88;;;7.80;;
39896;SDS011;25567;48.276;14.242;2023-06-24T10:31:54;11.82;;;7.47;;
39896;SDS011;25567;48.276;14.242;2023-06-24T10:34:31;15.23;;;7.70;;
39896;SDS011;25567;48.276;14.242;2023-06-24T10:37:02;12.95;;;6.47;;
39896;SDS011;25567;48.276;14.242;2023-06-24T10:44:58;11.43;;;6.88;;
39896;SDS011;25567;48.276;14.242;2023-06-24T10:47:26;11.68;;;6.25;;
39896;SDS011;25567;48.276;14.242;2023-06-24T10:49:53;14.98;;;6.43;;
39896;SDS011;25567;48.276;14.242;2023-06-24T10:52:20;12.70;;;6.32;;
39896;SDS011;25567;48.276;14.242;2023-06-24T10:54:48;9.57;;;5.38;;
39896;SDS011;25567;48.276;14.242;2023-06-24T10:57:15;12.98;;;6.13;;
39896;SDS011;25567;48.276;14.242;2023-06-24T10:59:42;11.13;;;6.40;;
39896;SDS011;25567;48.276;14.242;2023-06-24T11:02:09;13.98;;;6.75;;
39896;SDS011;25567;48.276;14.242;2023-06-24T11:07:11;20.02;;;7.22;;
39896;SDS011;25567;48.276;14.242;2023-06-24T11:09:40;13.00;;;7.03;;
39896;SDS011;25567;48.276;14.242;2023-06-24T11:12:08;12.43;;;6.15;;
39896;SDS011;25567;48.276;14.242;2023-06-24T11:14:35;10.68;;;6.18;;
39896;SDS011;25567;48.276;14.242;2023-06-24T11:17:02;14.50;;;6.60;;
39896;SDS011;25567;48.276;14.242;2023-06-24T11:19:32;12.60;;;6.47;;
39896;SDS011;25567;48.276;14.242;2023-06-24T11:22:00;13.50;;;6.88;;
39896;SDS011;25567;48.276;14.242;2023-06-24T11:24:27;12.70;;;6.57;;
39896;SDS011;25567;48.276;14.242;2023-06-24T11:26:54;12.15;;;6.70;;
39896;SDS011;25567;48.276;14.242;2023-06-24T11:29:21;11.38;;;6.82;;
39896;SDS011;25567;48.276;14.242;2023-06-24T11:31:48;11.73;;;6.88;;
39896;SDS011;25567;48.276;14.242;2023-06-24T11:34:15;13.82;;;6.72;;
39896;SDS011;25567;48.276;14.242;2023-06-24T11:36:42;11.88;;;6.60;;
39896;SDS011;25567;48.276;14.242;2023-06-24T11:39:19;17.00;;;7.00;;
39896;SDS011;25567;48.276;14.242;2023-06-24T11:41:46;12.45;;;6.78;;
39896;SDS011;25567;48.276;14.242;2023-06-24T11:44:13;11.98;;;6.43;;
39896;SDS011;25567;48.276;14.242;2023-06-24T11:46:39;12.18;;;6.57;;
39896;SDS011;25567;48.276;14.242;2023-06-24T11:49:06;12.88;;;7.32;;
39896;SDS011;25567;48.276;14.242;2023-06-24T11:51:33;18.42;;;7.20;;
39896;SDS011;25567;48.276;14.242;2023-06-24T11:54:04;12.25;;;6.40;;
39896;SDS011;25567;48.276;14.242;2023-06-24T11:56:38;14.35;;;7.18;;
39896;SDS011;25567;48.276;14.242;2023-06-24T11:59:05;12.27;;;6.85;;
39896;SDS011;25567;48.276;14.242;2023-06-24T12:01:32;14.43;;;7.00;;
39896;SDS011;25567;48.276;14.242;2023-06-24T12:04:00;11.18;;;7.03;;
39896;SDS011;25567;48.276;14.242;2023-06-24T12:06:28;11.57;;;6.53;;
39896;SDS011;25567;48.276;14.242;2023-06-24T12:08:54;10.30;;;6.70;;
39896;SDS011;25567;48.276;14.242;2023-06-24T12:11:21;13.80;;;7.15;;
39896;SDS011;25567;48.276;14.242;2023-06-24T12:13:48;14.23;;;6.78;;
39896;SDS011;25567;48.276;14.242;2023-06-24T12:16:15;13.50;;;6.78;;
39896;SDS011;25567;48.276;14.242;2023-06-24T12:18:41;13.55;;;7.18;;
39896;SDS011;25567;48.276;14.242;2023-06-24T12:21:08;12.60;;;6.85;;
39896;SDS011;25567;48.276;14.242;2023-06-24T12:23:35;10.88;;;6.32;;
39896;SDS011;25567;48.276;14.242;2023-06-24T12:26:01;12.23;;;6.75;;
39896;SDS011;25567;48.276;14.242;2023-06-24T12:28:28;11.88;;;6.40;;
39896;SDS011;25567;48.276;14.242;2023-06-24T12:30:55;17.70;;;6.53;;
39896;SDS011;25567;48.276;14.242;2023-06-24T12:33:21;13.32;;;6.15;;
39896;SDS011;25567;48.276;14.242;2023-06-24T12:35:49;11.20;;;7.15;;
39896;SDS011;25567;48.276;14.242;2023-06-24T12:38:15;10.85;;;6.32;;
39896;SDS011;25567;48.276;14.242;2023-06-24T12:40:42;12.38;;;6.55;;
39896;SDS011;25567;48.276;14.242;2023-06-24T12:43:09;11.88;;;6.50;;
39896;SDS011;25567;48.276;14.242;2023-06-24T12:45:37;13.48;;;6.03;;
39896;SDS011;25567;48.276;14.242;2023-06-24T12:48:04;11.70;;;6.25;;
39896;SDS011;25567;48.276;14.242;2023-06-24T12:50:31;11.13;;;5.95;;
39896;SDS011;25567;48.276;14.242;2023-06-24T12:52:58;12.27;;;6.15;;
39896;SDS011;25567;48.276;14.242;2023-06-24T12:55:25;11.25;;;6.35;;
39896;SDS011;25567;48.276;14.242;2023-06-24T12:57:51;11.48;;;5.35;;
39896;SDS011;25567;48.276;14.242;2023-06-24T13:00:21;12.30;;;5.45;;
39896;SDS011;25567;48.276;14.242;2023-06-24T13:02:48;10.20;;;5.40;;
39896;SDS011;25567;48.276;14.242;2023-06-24T13:05:16;9.75;;;5.80;;
39896;SDS011;25567;48.276;14.242;2023-06-24T13:07:42;10.73;;;5.10;;
39896;SDS011;25567;48.276;14.242;2023-06-24T13:10:10;12.02;;;5.53;;
39896;SDS011;25567;48.276;14.242;2023-06-24T13:12:37;10.13;;;4.60;;
39896;SDS011;25567;48.276;14.242;2023-06-24T13:15:04;9.50;;;5.07;;
39896;SDS011;25567;48.276;14.242;2023-06-24T13:17:31;8.82;;;4.55;;
39896;SDS011;25567;48.276;14.242;2023-06-24T13:19:57;8.82;;;5.00;;
39896;SDS011;25567;48.276;14.242;2023-06-24T13:22:24;7.65;;;4.35;;
39896;SDS011;25567;48.276;14.242;2023-06-24T13:24:51;8.57;;;4.43;;
39896;SDS011;25567;48.276;14.242;2023-06-24T13:27:17;10.18;;;4.47;;
39896;SDS011;25567;48.276;14.242;2023-06-24T13:29:44;6.78;;;4.20;;
39896;SDS011;25567;48.276;14.242;2023-06-24T13:32:11;7.00;;;4.00;;
39896;SDS011;25567;48.276;14.242;2023-06-24T13:34:37;16.02;;;3.90;;
39896;SDS011;25567;48.276;14.242;2023-06-24T13:37:04;5.97;;;3.80;;
39896;SDS011;25567;48.276;14.242;2023-06-24T13:39:31;6.82;;;3.67;;
39896;SDS011;25567;48.276;14.242;2023-06-24T13:41:58;6.43;;;4.28;;
39896;SDS011;25567;48.276;14.242;2023-06-24T13:44:25;6.57;;;3.90;;
39896;SDS011;25567;48.276;14.242;2023-06-24T13:46:52;7.82;;;3.60;;
39896;SDS011;25567;48.276;14.242;2023-06-24T13:49:20;7.90;;;4.05;;
39896;SDS011;25567;48.276;14.242;2023-06-24T13:51:46;6.65;;;4.05;;
39896;SDS011;25567;48.276;14.242;2023-06-24T13:54:13;5.25;;;3.47;;
39896;SDS011;25567;48.276;14.242;2023-06-24T13:56:40;6.28;;;3.83;;
39896;SDS011;25567;48.276;14.242;2023-06-24T13:59:06;6.30;;;4.00;;
39896;SDS011;25567;48.276;14.242;2023-06-24T14:01:33;6.82;;;3.50;;
39896;SDS011;25567;48.276;14.242;2023-06-24T14:03:59;9.27;;;4.50;;
39896;SDS011;25567;48.276;14.242;2023-06-24T14:06:26;8.85;;;4.18;;
39896;SDS011;25567;48.276;14.242;2023-06-24T14:08:53;6.72;;;3.92;;
39896;SDS011;25567;48.276;14.242;2023-06-24T14:11:20;5.43;;;3.80;;
39896;SDS011;25567;48.276;14.242;2023-06-24T14:13:47;6.63;;;4.00;;
39896;SDS011;25567;48.276;14.242;2023-06-24T14:16:13;9.32;;;3.67;;
39896;SDS011;25567;48.276;14.242;2023-06-24T14:18:40;6.72;;;4.22;;
39896;SDS011;25567;48.276;14.242;2023-06-24T14:21:07;5.60;;;3.67;;
39896;SDS011;25567;48.276;14.242;2023-06-24T14:23:34;5.97;;;4.03;;
39896;SDS011;25567;48.276;14.242;2023-06-24T14:26:02;8.35;;;4.70;;
39896;SDS011;25567;48.276;14.242;2023-06-24T14:28:29;6.47;;;3.67;;
39896;SDS011;25567;48.276;14.242;2023-06-24T14:30:55;6.30;;;4.13;;
39896;SDS011;25567;48.276;14.242;2023-06-24T14:33:22;7.20;;;4.10;;
39896;SDS011;25567;48.276;14.242;2023-06-24T14:35:49;9.40;;;4.18;;
39896;SDS011;25567;48.276;14.242;2023-06-24T14:38:17;6.15;;;4.32;;
39896;SDS011;25567;48.276;14.242;2023-06-24T14:40:44;9.60;;;4.28;;
39896;SDS011;25567;48.276;14.242;2023-06-24T14:43:10;7.03;;;3.85;;
39896;SDS011;25567;48.276;14.242;2023-06-24T14:45:37;6.00;;;4.25;;
39896;SDS011;25567;48.276;14.242;2023-06-24T14:48:04;9.93;;;4.60;;
39896;SDS011;25567;48.276;14.242;2023-06-24T14:50:31;7.28;;;4.40;;